D/T METAR WX W/DIR W/SPE G/SPE TEMP DEWP
23/05/19 12:56 EGUL 231156Z AUTO 25008KT 9999 CLR 20/12 A2998 RMK AO2 SLP155 T02020119 10203 20105 57011 $ WSW (250°) 9.2mph 20.2°C 11.9°C
23/05/19 11:56 EGUL 231056Z AUTO 26008KT 9999 CLR 19/11 A3000 RMK AO2 SLP162 T01880106 $ W (260°) 9.2mph 18.8°C 10.6°C
23/05/19 10:56 EGUL 230956Z AUTO 26005KT 9999 CLR 18/11 A3001 RMK AO2 SLP165 T01770108 $ W (260°) 5.8mph 17.7°C 10.8°C
23/05/19 09:56 EGUL 230856Z AUTO 24005KT 9999 CLR 16/11 A3002 RMK AO2 SLP169 T01640105 50001 $ WSW (240°) 5.8mph 16.4°C 10.5°C
23/05/19 08:56 EGUL 230756Z AUTO 00000KT 9999 CLR 15/10 A3002 RMK AO2 SLP169 T01470097 $ N (0°) 14.7°C 9.7°C
23/05/19 07:56 EGUL 230656Z AUTO 00000KT 9999 CLR 13/09 A3002 RMK AO2 SLP169 T01290090 $ N (0°) 12.9°C 9°C
23/05/19 06:56 EGUL 230556Z AUTO 22004KT 9999 CLR 10/08 A3001 RMK AO2 SLP165 T01040075 10131 20078 53002 $ SW (220°) 4.6mph 10.4°C 7.5°C
23/05/19 05:56 EGUL 230456Z AUTO 00000KT 9999 CLR 08/06 A3001 RMK AO2 SLP166 T00810059 $ N (0°) 8.1°C 5.9°C
23/05/19 04:56 EGUL 230356Z AUTO 00000KT 9999 CLR 08/06 A3000 RMK AO2 SLP162 T00810059 $ N (0°) 8.1°C 5.9°C
23/05/19 03:56 EGUL 230256Z AUTO 00000KT 9999 CLR 10/06 A3001 RMK AO2 SLP165 T00950060 58003 $ N (0°) 9.5°C 6°C
23/05/19 02:56 EGUL 230156Z AUTO 00000KT 9999 BKN130 11/07 A3002 RMK AO2 SLP169 T01140071 $ N (0°) 11.4°C 7.1°C
23/05/19 01:56 EGUL 230056Z AUTO 21006KT 9999 SCT150 12/09 A3002 RMK AO2 SLP169 T01220087 $ SSW (210°) 6.9mph 12.2°C 8.7°C
23/05/19 00:56 EGUL 222356Z AUTO 21004KT 9999 BKN060 BKN150 13/10 A3002 RMK AO2 SLP169 T01310095 10191 20129 402000051 57004 $ SSW (210°) 4.6mph 13.1°C 9.5°C
22/05/19 23:56 EGUL 222256Z AUTO 00000KT 9999 BKN150 13/09 A3002 RMK AO2 SLP169 T01310093 $ N (0°) 13.1°C 9.3°C
22/05/19 22:56 EGUL 222156Z AUTO 00000KT 9999 BKN160 14/09 A3003 RMK AO2 SLP172 T01350092 $ N (0°) 13.5°C 9.2°C
22/05/19 21:56 EGUL 222056Z AUTO 15004KT 9999 FEW160 15/09 A3003 RMK AO2 SLPNO T01450091 55001 $ SSE (150°) 4.6mph 14.5°C 9.1°C
22/05/19 20:56 EGUL 221956Z AUTO 20003KT 9999 SCT160 17/06 A3003 RMK AO2 SLPNO T01700062 $ SSW (200°) 3.5mph 17°C 6.2°C
22/05/19 19:56 EGUL 221856Z AUTO 27006KT 9999 CLR 18/07 A3003 RMK AO2 SLP172 T01800065 $ W (270°) 6.9mph 18°C 6.5°C
22/05/19 18:56 EGUL 221756Z AUTO 27008KT 9999 CLR 19/07 A3004 RMK AO2 SLP176 T01920070 10200 20177 57010 $ W (270°) 9.2mph 19.2°C 7°C
22/05/19 17:56 EGUL 221656Z AUTO 28009KT 9999 CLR 20/07 A3004 RMK AO2 SLP176 T01970068 $ W (280°) 10.4mph 19.7°C 6.8°C
22/05/19 16:56 EGUL 221556Z AUTO 25008KT 9999 FEW065 20/06 A3006 RMK AO2 SLP183 T01960063 $ WSW (250°) 9.2mph 19.6°C 6.3°C
22/05/19 16:44 EGUL 221544Z AUTO 26011G18KT 9999 CLR 20/07 A3006 RMK AO2 WSHFT 35 SLP183 $ W (260°) 12.7mph 20.7mph 20°C 7°C
22/05/19 15:56 EGUL 221456Z AUTO 27013KT 9999 FEW060 20/08 A3007 RMK AO2 SLP186 T01980082 57009 $ W (270°) 15.0mph 19.8°C 8.2°C
22/05/19 14:56 EGUL 221356Z AUTO 26010G16KT 9999 FEW060 FEW220 19/07 A3008 RMK AO2 SLP189 T01910072 $ W (260°) 11.5mph 18.4mph 19.1°C 7.2°C
22/05/19 13:56 EGUL 221256Z AUTO 25008KT 9999 FEW055 FEW110 18/07 A3009 RMK AO2 SLP193 T01840066 $ WSW (250°) 9.2mph 18.4°C 6.6°C
22/05/19 12:56 EGUL 221156Z AUTO 21007KT 9999 FEW130 FEW200 18/07 A3009 RMK AO2 SLP193 T01760065 10178 20088 $ SSW (210°) 8.1mph 17.6°C 6.5°C
22/05/19 11:56 EGUL 221056Z AUTO 26007KT 9999 SCT130 SCT200 17/06 A3010 RMK AO2 SLP196 T01700059 $ W (260°) 8.1mph 17°C 5.9°C
22/05/19 10:56 EGUL 220956Z AUTO 25005KT 9999 FEW140 FEW200 17/07 A3010 RMK AO2 SLP196 T01730068 $ WSW (250°) 5.8mph 17.3°C 6.8°C
22/05/19 09:56 EGUL 220856Z COR AUTO 20004KT 9999 CLR 16/08 A3011 RMK AO2A SLP196 T01160063 $ COR 0913 SSW (200°) 4.6mph 16°C 8°C
22/05/19 08:56 EGUL 220756Z AUTO 00000KT 9999 CLR 15/08 A3010 RMK AO2 SLP196 T01160063 $ N (0°) 15°C 8°C
22/05/19 07:56 EGUL 220656Z AUTO 00000KT 9999 CLR 12/06 A3010 RMK AO2 SLP196 T01160063 $ N (0°) 11.6°C 6.3°C
22/05/19 06:56 EGUL 220556Z AUTO 23003KT 9999 CLR 09/05 A3010 RMK AO2 SLP196 T00870051 10093 20051 55001 $ SW (230°) 3.5mph 8.7°C 5.1°C
22/05/19 05:56 EGUL 220456Z AUTO 00000KT 9999 CLR 06/03 A3010 RMK AO2 SLP196 T00590032 $ N (0°) 5.9°C 3.2°C
22/05/19 04:56 EGUL 220356Z AUTO 00000KT 9999 SCT190 06/03 A3009 RMK AO2 SLP193 T00590029 $ N (0°) 5.9°C 2.9°C
22/05/19 03:56 EGUL 220256Z AUTO 24004KT 9999 SCT180 06/03 A3010 RMK AO2 SLP196 T00620030 52008 $ WSW (240°) 4.6mph 6.2°C 3°C
22/05/19 02:56 EGUL 220156Z AUTO 26003KT 9999 CLR 07/03 A3010 RMK AO2 SLP196 T00650028 $ W (260°) 3.5mph 6.5°C 2.8°C
22/05/19 01:56 EGUL 220056Z AUTO 29003KT 9999 CLR 08/04 A3009 RMK AO2 SLP193 T00770037 $ WNW (290°) 3.5mph 7.7°C 3.7°C
22/05/19 00:56 EGUL 212356Z AUTO 25004KT 9999 CLR 09/09 A3008 RMK AO2 SLP189 T00920086 10182 20090 401920068 51002 $ WSW (250°) 4.6mph 9.2°C 8.6°C
21/05/19 23:56 EGUL 212256Z AUTO 00000KT 9999 CLR 11/10 A3007 RMK AO2 SLP186 T01120095 $ N (0°) 11.2°C 9.5°C
21/05/19 22:56 EGUL 212156Z AUTO 31005KT 9999 CLR 13/10 A3007 RMK AO2 SLP186 T01300098 $ NW (310°) 5.8mph 13°C 9.8°C
21/05/19 21:56 EGUL 212056Z AUTO 29005KT 9999 FEW050 SCT075 15/09 A3007 RMK AO2 SLP186 T01490086 52008 $ WNW (290°) 5.8mph 14.9°C 8.6°C
21/05/19 20:56 EGUL 211956Z AUTO 09003KT 9999 SCT060 BKN080 16/10 A3006 RMK AO2 SLP183 T01610095 $ E (90°) 3.5mph 16.1°C 9.5°C
21/05/19 19:56 EGUL 211856Z AUTO 09003KT 9999 BKN055 BKN080 17/09 A3005 RMK AO2 SLP179 T01690091 $ E (90°) 3.5mph 16.9°C 9.1°C
21/05/19 18:56 EGUL 211756Z AUTO 36005KT 9999 CLR 18/07 A3004 RMK AO2 SLP176 T01830074 10192 20170 53001 $ N (360°) 5.8mph 18.3°C 7.4°C
21/05/19 17:56 EGUL 211656Z 35004KT 9999 FEW055 19/08 A3004 RMK AO2A SLP176 T01880079 $ N (350°) 4.6mph 18.8°C 7.9°C
21/05/19 16:56 EGUL 211556Z 34006KT 9999 SCT070 19/07 A3004 RMK AO2A SLP176 T01860071 $ NNW (340°) 6.9mph 18.6°C 7.1°C
21/05/19 15:56 EGUL 211456Z 36006KT 9999 SCT065 18/08 A3004 RMK AO2A SLP176 T01840075 53000 $ N (360°) 6.9mph 18.4°C 7.5°C
21/05/19 14:56 EGUL 211356Z AUTO 35008KT 9999 FEW060 19/08 A3004 RMK AO2 SLP176 T01860077 $ N (350°) 9.2mph 18.6°C 7.7°C